Time;durP1;ratioP1;P1;durP2;ratioP2;P2;SDS_P1;SDS_P2;PMS_P1;PMS_P2;Temp;Humidity;BMP_temperature;BMP_pressure;BME280_temperature;BME280_humidity;BME280_pressure;Samples;Min_cycle;Max_cycle;Signal;HPM_P1;HPM_P2
2022/12/01 00:00:53;;;;;;;5.17;2.08;;;;;;;0.51;56.05;102035.80;1704956;83;21007;-69
2022/12/01 00:03:19;;;;;;;5.25;1.62;;;;;;;0.52;56.02;102029.75;1706816;83;21075;-70
2022/12/01 00:05:46;;;;;;;5.28;1.62;;;;;;;0.52;56.10;102028.45;1694318;82;21816;-69
2022/12/01 00:08:12;;;;;;;4.80;1.60;;;;;;;0.57;56.08;102030.97;1701698;82;21133;-70
2022/12/01 00:10:39;;;;;;;8.65;3.47;;;;;;;0.58;56.11;102031.40;1698504;83;21007;-70
2022/12/01 00:13:06;;;;;;;5.87;1.92;;;;;;;0.59;56.13;102025.36;1704679;83;21003;-70
2022/12/01 00:15:34;;;;;;;5.72;1.90;;;;;;;0.61;56.00;102027.93;1700785;82;21059;-70
2022/12/01 00:18:02;;;;;;;4.40;1.47;;;;;;;0.63;55.92;102026.17;1703310;82;21901;-70
2022/12/01 00:20:29;;;;;;;5.22;1.62;;;;;;;0.62;55.86;102028.33;1700139;82;21587;-70
2022/12/01 00:22:56;;;;;;;6.03;1.57;;;;;;;0.57;55.75;102023.20;1684116;83;21753;-70
2022/12/01 00:25:22;;;;;;;5.17;1.52;;;;;;;0.54;55.80;102029.28;1703684;83;21067;-70
2022/12/01 00:27:50;;;;;;;7.30;2.27;;;;;;;0.48;55.92;102028.05;1702445;82;21024;-70
2022/12/01 00:30:18;;;;;;;6.37;2.35;;;;;;;0.47;55.94;102027.66;1703014;83;21267;-70
2022/12/01 00:32:45;;;;;;;7.25;2.25;;;;;;;0.42;55.99;102025.55;1705205;82;21090;-70
2022/12/01 00:35:12;;;;;;;5.10;2.25;;;;;;;0.40;56.13;102021.25;1706745;83;21751;-70
2022/12/01 00:37:40;;;;;;;6.92;1.92;;;;;;;0.35;56.14;102022.59;1701537;83;21050;-70
2022/12/01 00:40:08;;;;;;;5.15;1.85;;;;;;;0.32;56.20;102023.91;1707337;83;21090;-70
2022/12/01 00:42:34;;;;;;;4.87;2.02;;;;;;;0.32;56.21;102025.21;1702414;83;22342;-69
2022/12/01 00:45:02;;;;;;;8.25;2.42;;;;;;;0.28;56.23;102026.98;1714141;82;20998;-69
2022/12/01 00:47:28;;;;;;;4.95;1.30;;;;;;;0.27;56.30;102021.81;1705986;82;21054;-69
2022/12/01 00:49:55;;;;;;;8.65;3.98;;;;;;;0.23;56.39;102020.99;1698875;83;21052;-69
2022/12/01 00:52:22;;;;;;;4.92;1.25;;;;;;;0.21;56.47;102014.14;1702409;82;21080;-69
2022/12/01 00:54:48;;;;;;;8.25;1.62;;;;;;;0.21;56.55;102018.02;1701177;83;21244;-69
2022/12/01 00:57:15;;;;;;;4.80;2.02;;;;;;;0.20;56.48;102017.59;1701677;83;21062;-70
2022/12/01 00:59:42;;;;;;;8.03;2.25;;;;;;;0.16;56.50;102015.47;1701494;82;21146;-69
2022/12/01 01:02:09;;;;;;;5.47;1.70;;;;;;;0.12;56.67;102015.95;1702109;82;21099;-69
2022/12/01 01:04:36;;;;;;;6.30;2.47;;;;;;;0.14;56.65;102011.59;1697898;82;21090;-69
2022/12/01 01:07:04;;;;;;;4.85;1.82;;;;;;;0.11;56.67;102006.45;1701311;83;22325;-69
2022/12/01 01:09:32;;;;;;;5.60;1.47;;;;;;;0.09;56.75;102009.95;1703945;82;21015;-69
2022/12/01 01:11:58;;;;;;;6.08;2.20;;;;;;;0.07;56.80;102006.49;1702685;82;22194;-69
2022/12/01 01:14:25;;;;;;;4.70;1.40;;;;;;;0.03;56.86;102009.55;1696668;83;21970;-70
2022/12/01 01:16:52;;;;;;;4.03;1.37;;;;;;;0.02;56.93;102004.39;1701349;84;21082;-69
2022/12/01 01:19:19;;;;;;;5.05;1.60;;;;;;;-0.04;56.94;102004.02;1693754;83;21272;-69
2022/12/01 01:21:45;;;;;;;5.78;1.60;;;;;;;-0.04;57.08;102005.31;1696612;82;21047;-70
2022/12/01 01:24:12;;;;;;;5.10;1.75;;;;;;;-0.07;57.21;102004.92;1696746;82;21072;-70
2022/12/01 01:26:38;;;;;;;3.90;1.47;;;;;;;-0.07;57.25;102003.63;1699108;82;21050;-70
2022/12/01 01:29:06;;;;;;;7.17;1.60;;;;;;;-0.09;57.31;102001.92;1697564;82;21067;-69
2022/12/01 01:31:33;;;;;;;4.70;1.35;;;;;;;-0.09;57.41;102000.63;1696817;83;21263;-70
2022/12/01 01:33:59;;;;;;;5.55;2.15;;;;;;;-0.09;57.40;101991.56;1748100;80;21011;-70
2022/12/01 01:36:26;;;;;;;4.70;1.80;;;;;;;-0.11;57.51;101994.17;1740230;80;21110;-70
2022/12/01 01:38:54;;;;;;;6.03;1.22;;;;;;;-0.09;57.53;101996.30;1745324;80;21080;-70
2022/12/01 01:41:21;;;;;;;5.12;2.20;;;;;;;-0.07;57.52;102000.16;1744426;80;21035;-69
2022/12/01 01:43:54;;;;;;;5.12;1.57;;;;;;;-0.09;57.42;101993.70;1750857;80;21793;-70
2022/12/01 01:48:34;;;;;;;4.37;1.35;;;;;;;-0.22;58.07;101994.70;1794309;78;22613;-70
2022/12/01 01:51:00;;;;;;;4.85;1.62;;;;;;;-0.10;57.42;102000.19;1775472;80;21063;-71
2022/12/01 01:53:27;;;;;;;5.35;1.32;;;;;;;-0.11;57.45;101998.50;1766075;79;21348;-70
2022/12/01 01:55:54;;;;;;;5.92;1.87;;;;;;;-0.13;57.58;101998.95;1768532;80;21528;-70
2022/12/01 01:58:20;;;;;;;3.85;1.52;;;;;;;-0.13;57.59;101994.62;1768852;80;21670;-70
2022/12/01 02:00:46;;;;;;;5.30;1.95;;;;;;;-0.10;57.62;101997.19;1773320;80;21670;-70
2022/12/01 02:03:15;;;;;;;7.35;1.80;;;;;;;-0.11;57.63;101992.87;1765846;80;21093;-70
2022/12/01 02:05:43;;;;;;;4.40;0.90;;;;;;;-0.09;57.46;101996.30;1758744;80;21316;-70
2022/12/01 02:08:13;;;;;;;5.47;2.35;;;;;;;-0.10;57.42;101994.60;1766360;80;20991;-70
2022/12/01 02:11:11;;;;;;;4.87;1.85;;;;;;;-0.10;57.44;101991.14;1767424;80;21026;-70
2022/12/01 02:14:08;;;;;;;4.92;1.30;;;;;;;-0.10;57.43;101995.89;1734743;81;21070;-69
2022/12/01 02:16:44;;;;;;;4.45;1.30;;;;;;;-0.12;57.57;101994.18;1726256;81;21102;-69
2022/12/01 02:19:45;;;;;;;4.85;1.27;;;;;;;-0.12;57.47;101992.44;1734174;81;21365;-70
2022/12/01 02:22:57;;;;;;;5.15;1.32;;;;;;;-0.15;57.43;101990.33;1708770;83;21085;-70
2022/12/01 02:25:49;;;;;;;5.62;1.57;;;;;;;-0.17;57.48;101995.95;1712771;82;21557;-70
2022/12/01 02:28:42;;;;;;;4.65;1.35;;;;;;;-0.18;57.62;101987.34;1710386;82;21543;-69
2022/12/01 02:31:22;;;;;;;6.05;2.00;;;;;;;-0.21;57.68;101990.80;1705425;83;21531;-70
2022/12/01 02:33:53;;;;;;;8.95;2.37;;;;;;;-0.21;57.67;101988.22;1679075;84;21102;-70
2022/12/01 02:36:36;;;;;;;5.42;1.22;;;;;;;-0.22;57.78;101986.52;1700747;83;21078;-70
2022/12/01 02:39:07;;;;;;;7.25;1.57;;;;;;;-0.22;57.85;101980.05;1709987;81;21022;-70
2022/12/01 02:41:44;;;;;;;6.17;2.58;;;;;;;-0.24;57.79;101984.36;1704394;83;21471;-70
2022/12/01 02:44:28;;;;;;;6.55;1.85;;;;;;;-0.23;57.91;101986.53;1710965;83;22279;-70
2022/12/01 02:46:59;;;;;;;4.83;1.52;;;;;;;-0.26;57.95;101984.81;1693174;83;21242;-70
2022/12/01 02:49:29;;;;;;;4.78;1.32;;;;;;;-0.33;57.73;101987.05;1748345;80;21052;-70
2022/12/01 02:51:56;;;;;;;4.62;1.57;;;;;;;-0.33;57.89;101990.08;1751380;80;21004;-70
2022/12/01 02:54:22;;;;;;;8.55;1.92;;;;;;;-0.34;57.94;101987.91;1755009;80;21903;-70
2022/12/01 02:56:51;;;;;;;7.00;1.57;;;;;;;-0.34;57.93;101998.25;1760494;80;21566;-69
2022/12/01 02:59:18;;;;;;;3.87;0.90;;;;;;;-0.32;57.93;101995.66;1751391;79;21096;-70
2022/12/01 03:02:06;;;;;;;4.40;1.85;;;;;;;-0.34;57.80;101995.67;1752554;80;21172;-70
2022/12/01 03:04:57;;;;;;;7.17;1.65;;;;;;;-0.37;57.79;101995.69;1757965;80;20995;-70
2022/12/01 03:08:04;;;;;;;4.25;1.20;;;;;;;-0.40;57.92;101993.16;1747409;80;21063;-70
2022/12/01 03:10:55;;;;;;;4.65;1.42;;;;;;;-0.39;58.15;101993.56;1759436;80;21035;-69
2022/12/01 03:13:52;;;;;;;5.90;1.80;;;;;;;-0.40;58.13;101995.30;1751529;80;21596;-70
2022/12/01 03:16:52;;;;;;;4.45;1.42;;;;;;;-0.40;58.30;101990.13;1758048;80;21674;-70
2022/12/01 03:19:30;;;;;;;7.35;1.82;;;;;;;-0.39;58.27;101993.14;1755483;80;21075;-69
2022/12/01 03:22:24;;;;;;;5.20;1.50;;;;;;;-0.38;58.30;101990.11;1758452;80;21059;-70
2022/12/01 03:24:51;;;;;;;4.55;1.20;;;;;;;-0.37;58.25;101986.64;1751209;80;21074;-70
2022/12/01 03:27:20;;;;;;;6.20;1.98;;;;;;;-0.38;58.13;101984.94;1754168;80;21211;-70
2022/12/01 03:29:50;;;;;;;5.03;1.50;;;;;;;-0.41;58.00;101989.69;1737783;80;21593;-71
2022/12/01 03:32:32;;;;;;;5.78;1.77;;;;;;;-0.43;58.13;101989.30;1758804;80;21020;-70
2022/12/01 03:35:09;;;;;;;4.87;1.47;;;;;;;-0.45;58.07;101990.59;1753899;80;21098;-69
2022/12/01 03:38:06;;;;;;;7.47;1.30;;;;;;;-0.46;57.92;101988.02;1759062;80;21071;-69
2022/12/01 03:40:35;;;;;;;5.37;1.55;;;;;;;-0.48;58.11;101988.03;1762136;79;21134;-71
2022/12/01 03:43:15;;;;;;;4.15;1.35;;;;;;;-0.48;58.14;101989.33;1757987;79;20996;-71
2022/12/01 03:46:04;;;;;;;5.03;1.55;;;;;;;-0.47;58.11;101988.47;1757663;80;21664;-71
2022/12/01 03:48:31;;;;;;;6.12;1.60;;;;;;;-0.44;58.22;101990.16;1763017;80;21102;-71
2022/12/01 03:51:15;;;;;;;5.20;1.37;;;;;;;-0.44;58.31;101992.33;1762170;80;21133;-71
2022/12/01 03:53:50;;;;;;;5.95;2.12;;;;;;;-0.45;58.21;101993.19;1759276;80;21797;-69
2022/12/01 03:56:20;;;;;;;5.50;1.90;;;;;;;-0.44;58.45;101992.73;1737506;80;21077;-69
2022/12/01 03:58:47;;;;;;;4.05;1.50;;;;;;;-0.44;58.24;101992.33;1765135;79;21008;-69
2022/12/01 04:01:14;;;;;;;7.67;2.35;;;;;;;-0.46;58.28;101998.37;1758592;80;21707;-70
2022/12/01 04:03:41;;;;;;;4.25;1.12;;;;;;;-0.46;58.32;102001.80;1755688;79;21556;-69
2022/12/01 04:06:07;;;;;;;4.20;1.15;;;;;;;-0.46;58.25;102001.80;1750311;80;22071;-69
2022/12/01 04:08:36;;;;;;;6.62;1.98;;;;;;;-0.48;58.24;102006.58;1758430;80;21102;-70
2022/12/01 04:12:28;;;;;;;6.17;2.37;;;;;;;-0.50;58.62;102006.59;1757630;79;21051;-69
2022/12/01 04:13:31;;;;;;;4.83;1.55;;;;;;;-0.50;58.30;102008.33;1756572;80;21071;-69
2022/12/01 04:15:58;;;;;;;5.50;1.70;;;;;;;-0.50;58.32;102004.45;1754570;80;21078;-69
2022/12/01 04:18:25;;;;;;;8.05;1.82;;;;;;;-0.53;58.15;102008.34;1760386;80;21304;-69
2022/12/01 04:20:52;;;;;;;6.00;1.70;;;;;;;-0.53;58.15;102008.34;1757063;80;21051;-69
2022/12/01 04:26:05;;;;;;;3.52;1.20;;;;;;;-0.50;58.50;102013.05;1756035;80;21638;-69
2022/12/01 04:28:32;;;;;;;4.67;1.35;;;;;;;-0.51;58.32;102011.77;1749385;79;21677;-70
2022/12/01 04:30:58;;;;;;;5.33;2.30;;;;;;;-0.53;58.20;102010.94;1760871;80;21243;-70
2022/12/01 04:33:25;;;;;;;10.05;1.95;;;;;;;-0.58;58.46;102010.52;1756438;80;21027;-70
2022/12/01 04:35:58;;;;;;;4.55;1.32;;;;;;;-0.54;58.48;102010.50;1754582;80;21074;-70
2022/12/01 04:38:25;;;;;;;5.28;1.90;;;;;;;-0.55;58.37;102009.65;1756753;80;21030;-70
2022/12/01 04:40:51;;;;;;;5.85;1.57;;;;;;;-0.63;58.33;102017.45;1751495;80;21018;-69
2022/12/01 04:43:18;;;;;;;3.12;1.15;;;;;;;-0.67;58.42;102014.89;1718849;82;21801;-70
2022/12/01 04:45:44;;;;;;;4.42;1.37;;;;;;;-0.73;58.51;102018.39;1695391;84;21524;-69
2022/12/01 04:48:12;;;;;;;4.72;1.32;;;;;;;-0.73;58.75;102014.95;1760432;80;21031;-70
2022/12/01 04:50:40;;;;;;;4.87;2.02;;;;;;;-0.73;58.75;102007.20;1763281;79;21047;-69
2022/12/01 04:53:07;;;;;;;5.50;2.00;;;;;;;-0.77;58.71;102011.53;1760722;80;21042;-69
2022/12/01 04:55:38;;;;;;;7.15;1.75;;;;;;;-0.79;58.63;102008.95;1759078;80;21626;-70
2022/12/01 04:58:04;;;;;;;4.62;1.62;;;;;;;-0.81;58.79;102012.41;1755978;80;20976;-70
2022/12/01 05:00:32;;;;;;;4.85;1.20;;;;;;;-0.80;58.86;102011.55;1751986;80;21110;-69
2022/12/01 05:02:59;;;;;;;5.25;1.55;;;;;;;-0.78;58.87;102009.36;1757405;80;21108;-68
2022/12/01 05:05:25;;;;;;;5.72;1.98;;;;;;;-0.80;58.85;102013.69;1764320;80;21062;-68
2022/12/01 05:07:52;;;;;;;5.70;2.42;;;;;;;-0.76;58.96;102010.65;1764958;80;21298;-68
2022/12/01 05:10:18;;;;;;;5.33;2.05;;;;;;;-0.76;58.96;102011.94;1762443;79;21039;-69
2022/12/01 05:12:45;;;;;;;6.12;1.95;;;;;;;-0.75;58.86;102009.34;1754368;80;21110;-69
2022/12/01 05:15:12;;;;;;;5.05;1.90;;;;;;;-0.76;58.84;102012.82;1759699;79;21030;-68
2022/12/01 05:17:38;;;;;;;4.37;1.35;;;;;;;-0.76;58.86;102014.11;1758930;80;21118;-68
2022/12/01 05:22:57;;;;;;;5.45;2.10;;;;;;;-0.73;58.83;102011.92;1764932;80;21119;-69
2022/12/01 05:25:24;;;;;;;6.40;1.72;;;;;;;-0.72;58.74;102014.06;1758215;80;21199;-69
2022/12/01 05:27:50;;;;;;;7.00;1.90;;;;;;;-0.73;58.74;102014.95;1763730;79;21606;-69
2022/12/01 05:30:17;;;;;;;5.47;1.77;;;;;;;-0.76;58.86;102012.82;1759370;80;21547;-69
2022/12/01 05:32:44;;;;;;;5.75;1.70;;;;;;;-0.72;58.74;102012.77;1761196;80;21138;-69
2022/12/01 05:35:10;;;;;;;6.45;2.20;;;;;;;-0.71;58.83;102016.64;1764622;80;21046;-69
2022/12/01 05:37:37;;;;;;;7.03;1.45;;;;;;;-0.71;58.71;102015.34;1755553;80;21569;-69
2022/12/01 05:40:06;;;;;;;5.55;1.75;;;;;;;-0.71;58.74;102019.23;1766099;79;21086;-69
2022/12/01 05:42:32;;;;;;;6.03;2.25;;;;;;;-0.71;58.78;102019.67;1760834;80;21546;-69
2022/12/01 05:44:58;;;;;;;5.97;1.55;;;;;;;-0.68;58.68;102020.95;1759571;80;21148;-69
2022/12/01 05:47:25;;;;;;;7.40;2.37;;;;;;;-0.71;58.60;102027.42;1763067;80;21054;-69
2022/12/01 05:49:51;;;;;;;4.87;1.95;;;;;;;-0.75;58.54;102026.15;1781138;79;20987;-69
2022/12/01 05:52:18;;;;;;;6.97;1.77;;;;;;;-0.78;58.62;102035.21;1767328;80;21044;-69
2022/12/01 05:54:45;;;;;;;4.12;1.00;;;;;;;-0.80;58.70;102029.20;1760219;80;21043;-69
2022/12/01 05:58:36;;;;;;;5.62;2.02;;;;;;;-0.83;59.15;102030.51;1796215;78;22735;-70
2022/12/01 06:01:03;;;;;;;4.37;1.20;;;;;;;-0.78;58.88;102031.33;1770139;79;20962;-70
2022/12/01 06:03:30;;;;;;;6.33;1.60;;;;;;;-0.74;58.96;102037.34;1769687;80;21457;-70
2022/12/01 06:05:57;;;;;;;7.95;2.40;;;;;;;-0.71;58.98;102037.77;1776460;80;21470;-70
2022/12/01 06:08:24;;;;;;;4.53;1.62;;;;;;;-0.63;59.04;102043.30;1767851;80;20951;-70
2022/12/01 06:10:51;;;;;;;6.22;1.32;;;;;;;-0.56;58.76;102039.80;1773547;78;21092;-70
2022/12/01 06:13:17;;;;;;;4.72;1.20;;;;;;;-0.52;58.59;102046.25;1776057;78;20990;-70
2022/12/01 06:15:44;;;;;;;4.92;1.57;;;;;;;-0.51;58.42;102037.19;1780336;78;21246;-70
2022/12/01 06:18:10;;;;;;;5.20;1.62;;;;;;;-0.51;58.41;102041.06;1787401;80;21025;-70
2022/12/01 06:20:37;;;;;;;4.45;1.60;;;;;;;-0.47;58.37;102042.77;1774845;78;21039;-70
2022/12/01 06:23:03;;;;;;;7.03;2.00;;;;;;;-0.45;58.35;102044.06;1756048;81;21123;-70
2022/12/01 06:25:30;;;;;;;7.03;2.12;;;;;;;-0.46;58.32;102044.92;1764720;78;21024;-70
2022/12/01 06:27:57;;;;;;;4.50;1.98;;;;;;;-0.41;58.32;102054.80;1780065;80;21165;-71
2022/12/01 06:30:24;;;;;;;5.78;2.00;;;;;;;-0.36;58.14;102047.86;1775792;79;21050;-71
2022/12/01 06:32:51;;;;;;;11.48;1.17;;;;;;;-0.28;57.96;102042.63;1781984;79;21053;-68
2022/12/01 06:35:17;;;;;;;5.97;1.98;;;;;;;-0.23;57.68;102042.16;1765405;80;21065;-68
2022/12/01 06:37:44;;;;;;;4.80;1.50;;;;;;;-0.20;57.53;102041.69;1763178;80;21130;-69
2022/12/01 06:40:11;;;;;;;6.30;2.35;;;;;;;-0.14;57.46;102048.98;1772785;78;21244;-69
2022/12/01 06:42:37;;;;;;;6.20;1.90;;;;;;;-0.09;57.24;102048.05;1777938;79;21117;-70
2022/12/01 06:45:05;;;;;;;6.03;1.87;;;;;;;-0.04;57.11;102041.55;1770990;80;21511;-68
2022/12/01 06:47:32;;;;;;;4.67;2.00;;;;;;;0.01;57.05;102039.77;1771207;80;21039;-70
2022/12/01 06:49:59;;;;;;;6.28;1.77;;;;;;;0.09;56.93;102043.15;1761004;80;21086;-69
2022/12/01 06:52:26;;;;;;;8.18;1.82;;;;;;;0.13;56.81;102037.05;1765684;80;21442;-69
2022/12/01 06:54:52;;;;;;;5.00;1.70;;;;;;;0.19;56.67;102037.45;1769747;78;21011;-68
2022/12/01 06:57:19;;;;;;;5.90;1.98;;;;;;;0.23;56.43;102036.97;1761268;80;21408;-67
2022/12/01 06:59:45;;;;;;;5.70;2.40;;;;;;;0.23;56.31;102043.00;1762275;80;21106;-67
2022/12/01 07:02:12;;;;;;;5.12;1.40;;;;;;;0.28;56.19;102041.66;1759775;80;21047;-68
2022/12/01 07:04:38;;;;;;;7.60;2.05;;;;;;;0.32;56.08;102039.45;1745199;79;21296;-69
2022/12/01 07:07:05;;;;;;;5.78;1.57;;;;;;;0.35;55.84;102043.31;1751032;80;21059;-69
2022/12/01 07:09:32;;;;;;;11.33;2.40;;;;;;;0.36;55.86;102043.73;1758351;79;21358;-68
2022/12/01 07:11:59;;;;;;;4.87;1.20;;;;;;;0.33;55.78;102041.18;1757861;80;21032;-68
2022/12/01 07:14:25;;;;;;;5.67;1.85;;;;;;;0.35;55.80;102032.95;1762175;79;21689;-69
2022/12/01 07:16:52;;;;;;;8.33;2.27;;;;;;;0.39;55.57;102041.53;1759572;80;21246;-68
2022/12/01 07:19:19;;;;;;;4.83;1.52;;;;;;;0.40;55.51;102036.34;1772398;80;21098;-67
2022/12/01 07:21:45;;;;;;;5.80;2.05;;;;;;;0.43;55.46;102044.09;1717405;82;21810;-68
2022/12/01 07:24:12;;;;;;;3.98;1.40;;;;;;;0.46;55.23;102040.62;1763681;80;21098;-70
2022/12/01 07:26:39;;;;;;;7.25;1.67;;;;;;;0.47;55.16;102044.91;1751266;79;21082;-69
2022/12/01 07:29:08;;;;;;;5.25;1.47;;;;;;;0.50;55.11;102047.47;1760571;79;21264;-70
2022/12/01 07:31:35;;;;;;;5.50;1.62;;;;;;;0.51;55.08;102044.86;1756949;80;21019;-72
2022/12/01 07:34:01;;;;;;;6.67;1.57;;;;;;;0.53;55.18;102044.84;1745933;80;21083;-73
2022/12/01 07:36:27;;;;;;;7.37;2.02;;;;;;;0.58;55.08;102044.35;1753031;80;21662;-70
2022/12/01 07:38:54;;;;;;;8.50;2.37;;;;;;;0.60;55.03;102040.45;1748287;80;21093;-73
2022/12/01 07:41:21;;;;;;;7.50;2.08;;;;;;;0.64;54.96;102039.11;1756181;79;21884;-68
2022/12/01 07:43:48;;;;;;;5.50;2.10;;;;;;;0.69;54.95;102038.61;1733708;80;21448;-68
2022/12/01 07:46:19;;;;;;;5.28;1.60;;;;;;;0.73;54.77;102031.66;1753827;80;21090;-67
2022/12/01 07:48:46;;;;;;;8.23;2.58;;;;;;;0.78;54.59;102032.45;1759102;80;21102;-67
2022/12/01 07:51:15;;;;;;;7.92;2.55;;;;;;;0.82;54.52;102028.92;1747352;80;21102;-73
2022/12/01 07:53:43;;;;;;;4.53;1.37;;;;;;;0.85;54.52;102030.64;1749384;80;22093;-67
2022/12/01 07:56:10;;;;;;;6.62;2.02;;;;;;;0.85;54.47;102028.89;1751019;80;21031;-66
2022/12/01 07:58:37;;;;;;;7.70;2.75;;;;;;;0.88;54.26;102027.56;1754232;80;21059;-68
2022/12/01 08:01:10;;;;;;;5.28;2.08;;;;;;;0.89;54.25;102025.40;1754964;80;21542;-67
2022/12/01 08:03:37;;;;;;;5.58;1.40;;;;;;;0.94;54.22;102030.50;1755658;80;21531;-68
2022/12/01 08:06:04;;;;;;;5.70;2.40;;;;;;;0.99;54.13;102031.30;1751751;80;21148;-69
2022/12/01 08:08:32;;;;;;;4.50;1.57;;;;;;;1.03;54.08;102029.55;1753720;80;21552;-67
2022/12/01 08:11:01;;;;;;;7.25;1.95;;;;;;;1.06;53.90;102019.98;1752597;80;21074;-74
2022/12/01 08:13:28;;;;;;;5.65;2.33;;;;;;;1.07;53.75;102029.45;1756772;80;21078;-70
2022/12/01 08:15:54;;;;;;;5.42;1.72;;;;;;;1.11;53.61;102027.70;1754067;80;21098;-73
2022/12/01 08:18:21;;;;;;;4.40;1.70;;;;;;;1.11;53.54;102024.66;1751980;80;21206;-73
2022/12/01 08:20:49;;;;;;;6.47;1.98;;;;;;;1.19;53.47;102031.46;1753509;80;21027;-74
2022/12/01 08:23:15;;;;;;;8.25;2.52;;;;;;;1.21;53.40;102031.00;1753030;79;21614;-71
2022/12/01 08:25:42;;;;;;;8.70;2.35;;;;;;;1.21;53.29;102034.47;1757942;79;21901;-71
2022/12/01 08:28:09;;;;;;;7.58;2.85;;;;;;;1.23;53.43;102027.96;1769774;79;21546;-71
2022/12/01 08:30:35;;;;;;;5.08;1.95;;;;;;;1.34;53.48;102016.12;1724761;82;21221;-71
2022/12/01 08:33:02;;;;;;;6.42;2.08;;;;;;;1.39;53.18;102012.56;1764137;79;21516;-71
2022/12/01 08:35:29;;;;;;;6.90;2.02;;;;;;;1.40;52.99;102012.98;1746069;79;21072;-72
2022/12/01 08:37:55;;;;;;;5.15;1.75;;;;;;;1.42;53.12;102013.81;1758961;80;21047;-70
2022/12/01 08:40:22;;;;;;;5.70;1.25;;;;;;;1.45;52.94;102011.18;1766179;79;21480;-70
2022/12/01 08:42:51;;;;;;;6.92;2.25;;;;;;;1.46;52.99;102010.31;1756315;79;21532;-71
2022/12/01 08:45:19;;;;;;;6.42;1.90;;;;;;;1.53;52.90;102009.77;1768266;79;21055;-71
2022/12/01 08:47:46;;;;;;;7.75;1.95;;;;;;;1.57;52.66;102002.79;1760137;79;22433;-74
2022/12/01 08:50:13;;;;;;;4.85;1.60;;;;;;;1.60;52.74;102005.34;1694947;82;21067;-68
2022/12/01 08:52:40;;;;;;;6.47;2.55;;;;;;;1.59;52.88;102001.87;1753337;80;21056;-71
2022/12/01 08:55:07;;;;;;;5.35;2.20;;;;;;;1.64;52.82;102003.94;1748522;80;21894;-69
2022/12/01 08:57:34;;;;;;;4.92;1.67;;;;;;;1.69;52.81;102004.32;1752439;80;21110;-70
2022/12/01 09:00:01;;;;;;;6.70;2.40;;;;;;;1.77;52.66;102007.20;1755672;80;21064;-72
2022/12/01 09:02:28;;;;;;;4.92;1.80;;;;;;;1.80;52.52;102003.67;1749960;80;21071;-72
2022/12/01 09:04:54;;;;;;;4.50;1.75;;;;;;;1.82;52.45;102004.53;1751276;80;21310;-71
2022/12/01 09:07:21;;;;;;;5.12;2.10;;;;;;;1.84;52.48;102001.45;1728257;80;22033;-70
2022/12/01 09:09:49;;;;;;;6.03;2.00;;;;;;;1.89;52.31;102006.13;1753658;80;21098;-71
2022/12/01 09:12:15;;;;;;;4.87;1.82;;;;;;;1.92;52.13;102006.08;1756458;80;21659;-71
2022/12/01 09:14:46;;;;;;;4.72;2.12;;;;;;;1.96;51.97;102004.27;1751257;80;21673;-67
2022/12/01 09:17:11;;;;;;;5.20;1.70;;;;;;;1.98;51.84;102002.50;1749094;80;21089;-66
2022/12/01 09:19:38;;;;;;;5.78;1.62;;;;;;;2.02;51.70;101997.69;1755459;80;21464;-71
2022/12/01 09:22:04;;;;;;;7.37;2.42;;;;;;;2.05;51.66;102000.20;1752393;80;21120;-71
2022/12/01 09:24:32;;;;;;;4.28;1.77;;;;;;;2.09;51.63;101996.67;1757529;79;21731;-71
2022/12/01 09:26:59;;;;;;;5.95;2.27;;;;;;;2.13;51.83;102000.91;1757153;79;21082;-71
2022/12/01 09:29:26;;;;;;;6.30;2.02;;;;;;;2.23;51.75;101994.66;1757361;80;21071;-71
2022/12/01 09:31:55;;;;;;;6.17;2.22;;;;;;;2.26;51.47;101991.61;1754508;79;21255;-70
2022/12/01 09:34:22;;;;;;;4.80;1.40;;;;;;;2.31;51.14;101997.56;1754331;80;21005;-68
2022/12/01 09:36:49;;;;;;;5.20;2.15;;;;;;;2.29;50.93;101990.25;1750998;80;21094;-64
2022/12/01 09:39:19;;;;;;;5.47;1.70;;;;;;;2.31;50.89;101994.97;1749823;80;21138;-64
2022/12/01 09:42:09;;;;;;;10.98;2.67;;;;;;;2.34;50.96;101987.97;1747872;80;21079;-64
2022/12/01 09:44:53;;;;;;;4.35;1.87;;;;;;;2.40;50.72;101990.45;1753795;80;22011;-64
2022/12/01 09:47:34;;;;;;;6.17;2.02;;;;;;;2.40;50.51;101985.67;1751479;80;21116;-67
2022/12/01 09:50:18;;;;;;;5.28;2.15;;;;;;;2.45;50.49;101995.98;1750875;79;21519;-66
2022/12/01 09:52:48;;;;;;;5.67;1.50;;;;;;;2.46;50.42;101995.95;1752105;80;21059;-65
2022/12/01 09:55:18;;;;;;;4.80;1.52;;;;;;;2.53;50.15;101996.69;1717534;81;21122;-70
2022/12/01 09:57:49;;;;;;;5.35;1.98;;;;;;;2.52;50.12;101994.55;1758878;80;21128;-68
2022/12/01 10:00:22;;;;;;;5.45;2.02;;;;;;;2.57;50.13;102000.50;1759977;79;21082;-69
2022/12/01 10:03:17;;;;;;;5.17;2.20;;;;;;;2.66;50.14;101998.59;1754386;80;21034;-68
2022/12/01 10:05:48;;;;;;;5.72;1.98;;;;;;;2.75;50.13;101990.14;1762120;80;21043;-68
2022/12/01 10:10:50;;;;;;;7.20;2.35;;;;;;;2.77;49.86;101988.38;1798853;78;22576;-70
2022/12/01 10:13:25;;;;;;;7.80;4.17;;;;;;;2.94;49.71;101984.53;1764563;80;21094;-65
2022/12/01 10:16:12;;;;;;;7.30;1.70;;;;;;;3.03;49.62;101980.89;1769007;80;21224;-70
2022/12/01 10:18:56;;;;;;;8.45;2.42;;;;;;;3.11;49.43;101986.32;1770269;80;21038;-70
2022/12/01 10:21:52;;;;;;;6.17;2.47;;;;;;;3.16;49.19;101984.47;1771309;80;21065;-69
2022/12/01 10:24:30;;;;;;;6.47;2.25;;;;;;;3.21;49.13;101982.19;1764277;80;21050;-70
2022/12/01 10:27:17;;;;;;;5.28;1.98;;;;;;;3.25;48.77;101983.84;1715653;82;21074;-70
2022/12/01 10:29:54;;;;;;;5.50;2.10;;;;;;;3.27;48.44;101971.64;1711432;81;21168;-70
2022/12/01 10:32:31;;;;;;;5.87;2.45;;;;;;;3.27;48.41;101967.74;1710906;82;20907;-70
2022/12/01 10:34:58;;;;;;;6.45;1.95;;;;;;;3.30;48.47;101974.18;1686886;83;21090;-70
2022/12/01 10:37:27;;;;;;;5.67;1.57;;;;;;;3.25;48.15;101970.38;1703135;81;21061;-70
2022/12/01 10:39:54;;;;;;;6.35;1.98;;;;;;;3.18;48.09;101971.84;1703962;82;21038;-70
2022/12/01 10:42:36;;;;;;;5.85;2.27;;;;;;;3.07;48.28;101965.16;1714839;82;21257;-70
2022/12/01 10:45:08;;;;;;;6.55;1.82;;;;;;;3.04;48.63;101967.82;1689889;83;21066;-69
2022/12/01 10:47:34;;;;;;;5.30;2.15;;;;;;;3.00;49.06;101969.25;1699756;83;21654;-70
2022/12/01 10:50:03;;;;;;;4.80;2.22;;;;;;;2.95;49.23;101973.25;1715384;81;21478;-70
2022/12/01 10:52:39;;;;;;;6.78;2.52;;;;;;;2.91;49.39;101975.52;1717831;83;21032;-70
2022/12/01 10:55:29;;;;;;;5.33;2.20;;;;;;;2.90;49.54;101969.91;1730734;82;26546;-70
2022/12/01 10:57:58;;;;;;;9.15;2.52;;;;;;;2.89;49.72;101969.48;1715983;81;21168;-70
2022/12/01 11:00:29;;;;;;;7.20;3.12;;;;;;;2.88;49.69;101971.23;1710710;82;21082;-70
2022/12/01 11:02:56;;;;;;;9.93;2.50;;;;;;;2.83;49.73;101971.78;1729258;81;21251;-69
2022/12/01 11:05:36;;;;;;;7.20;2.25;;;;;;;2.83;49.94;101964.44;1708827;83;21038;-69
2022/12/01 11:08:03;;;;;;;7.40;2.27;;;;;;;2.84;49.90;101960.92;1713494;83;21143;-69
2022/12/01 11:10:31;;;;;;;6.95;1.95;;;;;;;2.91;49.78;101961.22;1697218;83;22301;-70
2022/12/01 11:13:06;;;;;;;6.28;2.15;;;;;;;2.94;49.88;101953.33;1704250;83;21149;-70
2022/12/01 11:15:43;;;;;;;4.10;1.40;;;;;;;2.96;50.13;101949.81;1703974;83;21377;-70
2022/12/01 11:18:35;;;;;;;5.67;1.57;;;;;;;3.00;50.03;101953.66;1702609;82;21015;-70
2022/12/01 11:21:10;;;;;;;4.45;1.77;;;;;;;3.05;50.11;101948.73;1708465;80;21151;-70
2022/12/01 11:23:47;;;;;;;5.85;1.60;;;;;;;3.07;50.12;101948.25;1775069;80;21019;-70
2022/12/01 11:26:19;;;;;;;6.50;1.75;;;;;;;3.14;49.84;101940.73;1769680;80;21043;-70
2022/12/01 11:28:57;;;;;;;7.12;1.98;;;;;;;3.19;49.57;101934.55;1772446;80;22184;-69
2022/12/01 11:31:40;;;;;;;5.42;2.33;;;;;;;3.21;49.67;101936.66;1743851;80;21101;-69
2022/12/01 11:34:27;;;;;;;5.45;1.98;;;;;;;3.23;49.90;101935.75;1765979;80;21220;-70
2022/12/01 11:36:57;;;;;;;7.35;2.37;;;;;;;3.28;50.06;101939.09;1760382;80;21031;-69
2022/12/01 11:39:33;;;;;;;5.97;2.15;;;;;;;3.32;50.00;101934.66;1776855;79;21082;-70
2022/12/01 11:42:28;;;;;;;4.37;1.65;;;;;;;3.32;50.17;101926.86;1756196;80;21019;-70
2022/12/01 11:45:09;;;;;;;4.28;2.02;;;;;;;3.36;49.78;101932.38;1757224;80;21090;-70
2022/12/01 11:47:35;;;;;;;7.20;2.08;;;;;;;3.34;49.51;101932.41;1756728;80;21194;-70
2022/12/01 11:50:08;;;;;;;9.35;4.05;;;;;;;3.39;49.52;101924.95;1717360;82;21051;-70
2022/12/01 11:52:45;;;;;;;6.83;2.00;;;;;;;3.45;49.65;101929.56;1764668;80;21078;-70
2022/12/01 11:55:17;;;;;;;4.83;1.20;;;;;;;3.59;49.10;101925.75;1762907;80;21062;-70
2022/12/01 11:57:46;;;;;;;6.47;1.85;;;;;;;3.66;48.64;101927.28;1751439;80;21060;-70